Talitha — ZCAN7 — position and weather

sailwx.info

Track history (hours):
 
Tides and Currents Weather Stations Pressure Air Temp Water Temp Dewpoint Dewpoint Depression Visibility Wind Speed Wind Dir Waves Ship Positions

Talitha

Last reported at 2016-Jul-26 05:23 UTC. Time now 2016-Jul-29 02:11 UTC.
Position N 42°22' E 008°32'.

Length 80 m; draft 3.6 m.

Type: Pleasure craft. MMSI: 310051000.

Date/timePositionNaut miles runAvg speedWind from/ knotsBaromVisibWave heightAir tempDewpointWater temp
2016-Jul-26 05:23N 42°22' E 008°32'1012.3
2016-Jul-26 04:33N 42°31' E 008°38'6 0.7
2016-Jul-25 20:32N 42°35' E 008°44'0 0.0
2016-Jul-25 19:32N 42°35' E 008°44'0 0.0
2016-Jul-25 18:27N 42°35' E 008°44'0 0.0
2016-Jul-25 17:30N 42°35' E 008°44'0 0.0
2016-Jul-25 16:23N 42°35' E 008°44'0 0.0
2016-Jul-25 15:33N 42°35' E 008°44'0 0.0
2016-Jul-25 14:28N 42°35' E 008°44'9 9.4
2016-Jul-25 13:33N 42°39' E 008°53'1312.4
2016-Jul-25 12:32N 42°45' E 009°09'3 2.6
2016-Jul-25 11:33N 42°44' E 009°12'0 0.0
2016-Jul-25 10:07N 42°44' E 009°12'7 2.5
2016-Jul-25 07:09N 42°51' E 009°16'22 8.3
2016-Jul-25 04:29N 42°51' E 009°46'2512.3
2016-Jul-25 02:27N 42°39' E 010°16'41 3.4
2016-Jul-24 14:22N 42°27' E 011°08'0 0.0
2016-Jul-24 13:31N 42°27' E 011°08'0 0.0
2016-Jul-24 12:28N 42°27' E 011°08'0 0.0
2016-Jul-24 11:31N 42°27' E 011°08'0 0.0
2016-Jul-24 10:31N 42°27' E 011°08'0 0.0
2016-Jul-24 09:28N 42°27' E 011°08'0 0.0
2016-Jul-23 14:28N 42°27' E 011°08'0 0.0
2016-Jul-23 13:28N 42°27' E 011°08'1 0.9
2016-Jul-23 12:33N 42°27' E 011°07'12 0.9
2016-Jul-22 23:18N 42°22' E 010°52'0 0.4
2016-Jul-22 22:33N 42°23' E 010°52'1212.0
2016-Jul-22 21:33N 42°33' E 010°43'1413.3
2016-Jul-22 20:31N 42°44' E 010°34'1010.7
2016-Jul-22 19:32N 42°51' E 010°23'3 2.7
2016-Jul-22 18:29N 42°48' E 010°21'0 0.0
2016-Jul-22 17:20N 42°48' E 010°21'0 0.0
2016-Jul-22 16:32N 42°48' E 010°21'0 0.0
2016-Jul-22 15:08N 42°48' E 010°21'0 0.0
2016-Jul-22 14:23N 42°48' E 010°21'0 0.0
2016-Jul-22 13:32N 42°48' E 010°21'0 0.0
2016-Jul-22 09:08N 42°48' E 010°21'0 0.0
2016-Jul-22 08:29N 42°48' E 010°21'0 0.0
2016-Jul-22 07:32N 42°48' E 010°21'0 0.0
2016-Jul-22 04:32N 42°48' E 010°21'4 3.9
2016-Jul-22 03:33N 42°52' E 010°23'9 9.1
2016-Jul-22 02:33N 42°47' E 010°33'1110.5
2016-Jul-22 01:30N 42°39' E 010°43'  
2016-Jul-18 23:28N 41°27' E 012°07'1213.0
2016-Jul-18 22:33N 41°17' E 012°17'1313.1
2016-Jul-18 21:33N 41°07' E 012°29'1312.8
2016-Jul-18 20:32N 40°57' E 012°39'1212.7
2016-Jul-18 19:33N 40°47' E 012°50'3812.4
2016-Jul-18 16:29N 40°19' E 013°23'1212.6
2016-Jul-18 15:33N 40°10' E 013°33'1312.6
2016-Jul-18 14:33N 40°01' E 013°44'1413.0
2016-Jul-18 13:30N 39°51' E 013°56'1613.1
2016-Jul-18 12:17N 39°39' E 014°09'6612.8
2016-Jul-18 07:06N 38°49' E 015°06'912.4
2016-Jul-18 06:24N 38°42' E 015°13'1112.4
2016-Jul-18 05:33N 38°35' E 015°22'1212.2
2016-Jul-18 04:33N 38°26' E 015°33'1211.7
2016-Jul-18 03:33N 38°16' E 015°41'1110.8
2016-Jul-18 02:34N 38°06' E 015°36'1111.4
2016-Jul-18 01:33N 37°55' E 015°41'1411.4
2016-Jul-18 00:23N 37°53' E 015°58'  
Track history (hours):
 
Tides and Currents Weather Stations Pressure Air Temp Water Temp Dewpoint Dewpoint Depression Visibility Wind Speed Wind Dir Waves Ship Positions

Talitha

Last reported at 2016-Jul-26 05:23 UTC. Time now 2016-Jul-29 02:11 UTC.
Position N 42°22' E 008°32'.

Length 80 m; draft 3.6 m.

Type: Pleasure craft. MMSI: 310051000.

Date/timePositionNaut miles runAvg speedWind from/ knotsBaromVisibWave heightAir tempDewpointWater temp
2016-Jul-26 05:23N 42°22' E 008°32'1012.3
2016-Jul-26 04:33N 42°31' E 008°38'6 0.7
2016-Jul-25 20:32N 42°35' E 008°44'0 0.0
2016-Jul-25 19:32N 42°35' E 008°44'0 0.0
2016-Jul-25 18:27N 42°35' E 008°44'0 0.0
2016-Jul-25 17:30N 42°35' E 008°44'0 0.0
2016-Jul-25 16:23N 42°35' E 008°44'0 0.0
2016-Jul-25 15:33N 42°35' E 008°44'0 0.0
2016-Jul-25 14:28N 42°35' E 008°44'9 9.4
2016-Jul-25 13:33N 42°39' E 008°53'1312.4
2016-Jul-25 12:32N 42°45' E 009°09'3 2.6
2016-Jul-25 11:33N 42°44' E 009°12'0 0.0
2016-Jul-25 10:07N 42°44' E 009°12'7 2.5
2016-Jul-25 07:09N 42°51' E 009°16'22 8.3
2016-Jul-25 04:29N 42°51' E 009°46'2512.3
2016-Jul-25 02:27N 42°39' E 010°16'41 3.4
2016-Jul-24 14:22N 42°27' E 011°08'0 0.0
2016-Jul-24 13:31N 42°27' E 011°08'0 0.0
2016-Jul-24 12:28N 42°27' E 011°08'0 0.0
2016-Jul-24 11:31N 42°27' E 011°08'0 0.0
2016-Jul-24 10:31N 42°27' E 011°08'0 0.0
2016-Jul-24 09:28N 42°27' E 011°08'0 0.0
2016-Jul-23 14:28N 42°27' E 011°08'0 0.0
2016-Jul-23 13:28N 42°27' E 011°08'1 0.9
2016-Jul-23 12:33N 42°27' E 011°07'12 0.9
2016-Jul-22 23:18N 42°22' E 010°52'0 0.4
2016-Jul-22 22:33N 42°23' E 010°52'1212.0
2016-Jul-22 21:33N 42°33' E 010°43'1413.3
2016-Jul-22 20:31N 42°44' E 010°34'1010.7
2016-Jul-22 19:32N 42°51' E 010°23'3 2.7
2016-Jul-22 18:29N 42°48' E 010°21'0 0.0
2016-Jul-22 17:20N 42°48' E 010°21'0 0.0
2016-Jul-22 16:32N 42°48' E 010°21'0 0.0
2016-Jul-22 15:08N 42°48' E 010°21'0 0.0
2016-Jul-22 14:23N 42°48' E 010°21'0 0.0
2016-Jul-22 13:32N 42°48' E 010°21'0 0.0
2016-Jul-22 09:08N 42°48' E 010°21'0 0.0
2016-Jul-22 08:29N 42°48' E 010°21'0 0.0
2016-Jul-22 07:32N 42°48' E 010°21'0 0.0
2016-Jul-22 04:32N 42°48' E 010°21'4 3.9
2016-Jul-22 03:33N 42°52' E 010°23'9 9.1
2016-Jul-22 02:33N 42°47' E 010°33'1110.5
2016-Jul-22 01:30N 42°39' E 010°43'  
2016-Jul-18 23:28N 41°27' E 012°07'1213.0
2016-Jul-18 22:33N 41°17' E 012°17'1313.1
2016-Jul-18 21:33N 41°07' E 012°29'1312.8
2016-Jul-18 20:32N 40°57' E 012°39'1212.7
2016-Jul-18 19:33N 40°47' E 012°50'3812.4
2016-Jul-18 16:29N 40°19' E 013°23'1212.6
2016-Jul-18 15:33N 40°10' E 013°33'1312.6
2016-Jul-18 14:33N 40°01' E 013°44'1413.0
2016-Jul-18 13:30N 39°51' E 013°56'1613.1
2016-Jul-18 12:17N 39°39' E 014°09'6612.8
2016-Jul-18 07:06N 38°49' E 015°06'912.4
2016-Jul-18 06:24N 38°42' E 015°13'1112.4
2016-Jul-18 05:33N 38°35' E 015°22'1212.2
2016-Jul-18 04:33N 38°26' E 015°33'1211.7
2016-Jul-18 03:33N 38°16' E 015°41'1110.8
2016-Jul-18 02:34N 38°06' E 015°36'1111.4
2016-Jul-18 01:33N 37°55' E 015°41'1411.4
2016-Jul-18 00:23N 37°53' E 015°58'  

Dump ship's entire track history